Time;durP1;ratioP1;P1;durP2;ratioP2;P2;SDS_P1;SDS_P2;PMS_P1;PMS_P2;Temp;Humidity;BMP_temperature;BMP_pressure;BME280_temperature;BME280_humidity;BME280_pressure;Samples;Min_cycle;Max_cycle;Signal;HPM_P1;HPM_P2
2020/12/02 00:02:10;;;;;;;29.95;17.92;;;2.20;99.90;;;;;;5025525;28;20041;-76
2020/12/02 00:04:36;;;;;;;39.65;23.48;;;2.20;99.90;;;;;;5021030;28;20036;-77
2020/12/02 00:07:03;;;;;;;56.00;31.17;;;2.20;99.90;;;;;;5005949;28;20037;-76
2020/12/02 00:09:29;;;;;;;45.25;25.55;;;2.20;99.90;;;;;;5005126;28;20430;-77
2020/12/02 00:11:54;;;;;;;42.85;25.25;;;2.20;99.90;;;;;;5023832;28;20033;-76
2020/12/02 00:14:30;;;;;;;35.33;21.75;;;2.20;99.90;;;;;;5024700;28;20048;-76
2020/12/02 00:16:56;;;;;;;36.05;21.05;;;2.10;99.90;;;;;;5022980;28;20121;-76
2020/12/02 00:19:23;;;;;;;38.40;23.13;;;2.20;99.90;;;;;;5024356;28;20057;-76
2020/12/02 00:22:20;;;;;;;31.38;21.15;;;2.20;99.90;;;;;;5024444;28;20042;-74
2020/12/02 00:24:46;;;;;;;36.17;21.27;;;2.20;99.90;;;;;;5032323;28;20398;-76
2020/12/02 00:27:27;;;;;;;33.20;20.40;;;2.20;99.90;;;;;;5029848;28;20037;-74
2020/12/02 00:29:55;;;;;;;29.50;20.13;;;2.20;99.90;;;;;;5024830;28;20036;-76
2020/12/02 00:32:25;;;;;;;35.97;20.35;;;2.30;99.90;;;;;;5026581;28;20033;-76
2020/12/02 00:34:51;;;;;;;30.35;19.30;;;2.30;99.90;;;;;;5035290;28;20083;-76
2020/12/02 00:37:17;;;;;;;26.65;17.02;;;2.30;99.90;;;;;;5025772;28;20029;-76
2020/12/02 00:39:43;;;;;;;26.08;17.30;;;2.30;99.90;;;;;;5021795;28;20037;-76
2020/12/02 00:42:08;;;;;;;29.30;18.63;;;2.30;99.90;;;;;;5021231;28;20030;-76
2020/12/02 00:44:34;;;;;;;27.40;18.88;;;2.30;99.90;;;;;;5007049;28;20048;-76
2020/12/02 00:47:01;;;;;;;34.38;21.10;;;2.30;99.90;;;;;;5004755;28;20134;-73
2020/12/02 00:49:26;;;;;;;26.88;18.33;;;2.30;99.90;;;;;;5026769;28;20026;-77
2020/12/02 00:51:52;;;;;;;30.08;17.30;;;2.30;99.90;;;;;;5027165;28;20368;-76
2020/12/02 00:54:17;;;;;;;28.77;17.38;;;2.30;99.90;;;;;;5023040;28;20416;-74
2020/12/02 00:56:46;;;;;;;27.15;16.77;;;2.30;99.90;;;;;;5027884;28;20895;-72
2020/12/02 00:59:12;;;;;;;26.05;16.52;;;2.30;99.90;;;;;;5011512;28;20044;-74
2020/12/02 01:01:45;;;;;;;25.45;15.32;;;2.40;99.90;;;;;;5008230;28;20038;-73
2020/12/02 01:04:17;;;;;;;26.42;15.82;;;2.30;99.90;;;;;;5006947;28;20034;-74
2020/12/02 01:06:49;;;;;;;25.02;16.27;;;2.30;99.90;;;;;;5008420;28;20026;-76
2020/12/02 01:09:15;;;;;;;26.17;16.30;;;2.40;99.90;;;;;;5018375;28;20033;-75
2020/12/02 01:11:43;;;;;;;22.23;14.75;;;2.30;99.90;;;;;;5027767;28;20029;-76
2020/12/02 01:14:12;;;;;;;22.17;14.95;;;2.40;99.90;;;;;;5025480;28;20056;-76
2020/12/02 01:16:46;;;;;;;25.77;16.60;;;2.40;99.90;;;;;;5027046;28;20040;-76
2020/12/02 01:19:14;;;;;;;22.58;15.35;;;2.30;99.90;;;;;;5026120;28;20490;-77
2020/12/02 01:21:58;;;;;;;23.75;14.55;;;2.40;99.90;;;;;;5026750;28;20666;-76
2020/12/02 01:24:33;;;;;;;23.75;15.88;;;2.40;99.90;;;;;;5008257;28;20038;-76
2020/12/02 01:27:13;;;;;;;23.73;15.75;;;2.50;99.90;;;;;;5007435;28;20173;-77
2020/12/02 01:29:39;;;;;;;21.45;14.35;;;2.50;99.90;;;;;;5006952;28;20038;-76
2020/12/02 01:32:05;;;;;;;23.23;15.98;;;2.50;99.90;;;;;;5007306;28;20029;-76
2020/12/02 01:34:31;;;;;;;25.42;16.80;;;2.50;99.90;;;;;;5022336;28;20621;-76
2020/12/02 01:37:17;;;;;;;36.92;22.88;;;2.50;99.90;;;;;;5027382;28;20220;-77
2020/12/02 01:39:53;;;;;;;27.25;18.05;;;2.50;99.90;;;;;;5026088;28;20037;-73
2020/12/02 01:42:19;;;;;;;25.90;16.42;;;2.50;99.90;;;;;;5026395;28;20025;-76
2020/12/02 01:44:47;;;;;;;23.23;15.77;;;2.50;99.90;;;;;;5027916;28;20040;-76
2020/12/02 01:47:15;;;;;;;17.95;12.18;;;2.50;99.90;;;;;;5025525;28;20482;-76
2020/12/02 01:49:54;;;;;;;21.33;14.43;;;2.50;99.90;;;;;;5026518;28;20062;-74
2020/12/02 01:52:40;;;;;;;25.13;17.75;;;2.50;99.90;;;;;;5024535;28;20051;-76
2020/12/02 01:55:11;;;;;;;25.05;17.17;;;2.50;99.90;;;;;;5021682;28;20049;-76
2020/12/02 01:57:37;;;;;;;22.98;15.13;;;2.50;99.90;;;;;;5025029;28;20390;-76
2020/12/02 02:00:12;;;;;;;21.77;15.32;;;2.60;99.90;;;;;;5026958;28;20038;-76
2020/12/02 02:02:51;;;;;;;29.65;19.80;;;2.50;99.90;;;;;;5024631;28;20040;-74
2020/12/02 02:05:25;;;;;;;28.00;18.55;;;2.50;99.90;;;;;;5026647;28;20113;-76
2020/12/02 02:07:52;;;;;;;32.80;22.55;;;2.50;99.90;;;;;;5024767;28;20025;-76
2020/12/02 02:10:18;;;;;;;28.05;19.85;;;2.50;99.90;;;;;;5026694;28;20108;-76
2020/12/02 02:12:55;;;;;;;32.20;21.88;;;2.50;99.90;;;;;;5025964;28;20116;-76
2020/12/02 02:15:26;;;;;;;31.55;20.88;;;2.50;99.90;;;;;;5024019;28;20750;-77
2020/12/02 02:17:57;;;;;;;32.00;22.77;;;2.50;99.90;;;;;;5024524;28;20036;-76
2020/12/02 02:20:30;;;;;;;36.25;23.75;;;2.60;99.90;;;;;;5023836;28;20088;-76
2020/12/02 02:22:56;;;;;;;35.95;24.20;;;2.60;99.90;;;;;;5025634;28;20040;-72
2020/12/02 02:25:22;;;;;;;36.15;23.92;;;2.50;99.90;;;;;;5023768;28;20076;-73
2020/12/02 02:27:49;;;;;;;29.52;18.77;;;2.50;99.90;;;;;;5026329;28;20033;-74
2020/12/02 02:30:16;;;;;;;24.42;16.73;;;2.50;99.90;;;;;;5024511;28;20099;-74
2020/12/02 02:32:44;;;;;;;28.38;18.45;;;2.50;99.90;;;;;;5025991;28;20478;-76
2020/12/02 02:35:10;;;;;;;26.27;18.27;;;2.50;99.90;;;;;;5024357;28;20068;-76
2020/12/02 02:37:37;;;;;;;31.48;19.63;;;2.50;99.90;;;;;;5026353;28;20030;-76
2020/12/02 02:40:05;;;;;;;24.58;15.07;;;2.50;99.90;;;;;;5024197;28;20034;-76
2020/12/02 02:42:35;;;;;;;19.63;13.32;;;2.40;99.90;;;;;;5025176;28;20044;-76
2020/12/02 02:45:10;;;;;;;17.85;12.48;;;2.50;99.90;;;;;;5023878;28;20045;-76
2020/12/02 02:47:36;;;;;;;18.23;12.10;;;2.40;99.90;;;;;;5024548;28;20021;-76
2020/12/02 02:50:04;;;;;;;17.67;11.55;;;2.40;99.90;;;;;;5026091;28;20079;-75
2020/12/02 02:52:30;;;;;;;16.20;10.48;;;2.40;99.90;;;;;;5023526;28;21221;-76
2020/12/02 02:54:56;;;;;;;14.80;10.02;;;2.40;99.90;;;;;;5026277;28;20402;-76
2020/12/02 02:57:21;;;;;;;13.80;9.43;;;2.40;99.90;;;;;;5024366;28;20025;-76
2020/12/02 02:59:47;;;;;;;15.32;10.20;;;2.40;99.90;;;;;;5024465;28;20071;-76
2020/12/02 03:02:13;;;;;;;15.35;10.27;;;2.40;99.90;;;;;;5024659;28;20406;-76
2020/12/02 03:04:39;;;;;;;14.85;10.38;;;2.40;99.90;;;;;;5007159;28;20038;-76
2020/12/02 03:07:15;;;;;;;18.48;12.55;;;2.40;99.90;;;;;;5005447;28;20030;-77
2020/12/02 03:09:43;;;;;;;18.95;12.00;;;2.40;99.90;;;;;;5020767;28;20451;-76
2020/12/02 03:12:08;;;;;;;19.58;11.90;;;2.40;99.90;;;;;;5025340;28;20170;-76
2020/12/02 03:14:41;;;;;;;18.83;12.68;;;2.40;99.90;;;;;;5024521;28;20033;-74
2020/12/02 03:17:10;;;;;;;18.55;12.88;;;2.50;99.90;;;;;;5025719;28;20568;-76
2020/12/02 03:19:38;;;;;;;18.88;12.43;;;2.50;99.90;;;;;;5023723;28;20065;-75
2020/12/02 03:22:08;;;;;;;18.77;11.98;;;2.50;99.90;;;;;;5024347;28;20385;-76
2020/12/02 03:24:36;;;;;;;20.30;12.95;;;2.50;99.90;;;;;;5024888;28;20444;-77
2020/12/02 03:27:02;;;;;;;21.00;12.77;;;2.50;99.90;;;;;;5015398;28;20361;-74
2020/12/02 03:29:27;;;;;;;24.52;14.85;;;2.50;99.90;;;;;;5005633;28;20045;-74
2020/12/02 03:31:53;;;;;;;25.83;15.15;;;2.50;99.90;;;;;;5009503;28;20029;-73
2020/12/02 03:34:20;;;;;;;21.40;15.32;;;2.50;99.90;;;;;;5025358;28;20049;-74
2020/12/02 03:36:46;;;;;;;21.02;14.52;;;2.50;99.90;;;;;;5021040;28;20033;-73
2020/12/02 03:39:13;;;;;;;21.63;14.77;;;2.50;99.90;;;;;;5005709;28;20042;-74
2020/12/02 03:41:39;;;;;;;21.35;14.43;;;2.50;99.90;;;;;;5004156;28;20038;-74
2020/12/02 03:44:06;;;;;;;20.13;13.60;;;2.50;99.90;;;;;;5025500;28;20116;-74
2020/12/02 03:46:32;;;;;;;19.58;14.02;;;2.50;99.90;;;;;;5024913;28;20030;-74
2020/12/02 03:48:58;;;;;;;23.98;14.27;;;2.50;99.90;;;;;;5022741;28;20117;-74
2020/12/02 03:51:24;;;;;;;22.00;13.98;;;2.50;99.90;;;;;;5024566;28;20029;-74
2020/12/02 03:53:49;;;;;;;21.83;15.05;;;2.50;99.90;;;;;;5023415;28;20489;-74
2020/12/02 03:56:15;;;;;;;22.00;14.98;;;2.50;99.90;;;;;;5024972;28;20485;-74
2020/12/02 03:58:42;;;;;;;24.02;15.52;;;2.50;99.90;;;;;;5011176;28;20026;-74
2020/12/02 04:01:08;;;;;;;18.90;13.15;;;2.50;99.90;;;;;;5003951;28;20123;-74
2020/12/02 04:03:37;;;;;;;19.13;12.07;;;2.50;99.90;;;;;;5013023;28;20829;-73
2020/12/02 04:06:07;;;;;;;17.58;11.80;;;2.40;99.90;;;;;;5025063;28;20026;-76
2020/12/02 04:08:35;;;;;;;15.68;11.10;;;2.40;99.90;;;;;;5022789;28;20049;-76
2020/12/02 04:11:01;;;;;;;17.70;11.75;;;2.40;99.90;;;;;;5023044;28;20037;-76
2020/12/02 04:13:26;;;;;;;15.00;10.07;;;2.40;99.90;;;;;;5022864;28;20517;-76
2020/12/02 04:15:52;;;;;;;17.35;11.52;;;2.40;99.90;;;;;;5027477;28;20060;-74
2020/12/02 04:18:18;;;;;;;14.13;10.25;;;2.40;99.90;;;;;;5027384;28;20071;-74
2020/12/02 04:20:44;;;;;;;20.15;13.52;;;2.40;99.90;;;;;;5027247;28;20503;-74
2020/12/02 04:23:10;;;;;;;15.73;10.75;;;2.30;99.90;;;;;;5028125;28;20026;-74
2020/12/02 04:25:35;;;;;;;16.25;10.70;;;2.40;99.90;;;;;;5027439;28;20041;-74
2020/12/02 04:28:01;;;;;;;18.10;11.88;;;2.40;99.90;;;;;;5028780;28;20057;-74
2020/12/02 04:30:26;;;;;;;19.08;12.35;;;2.50;99.90;;;;;;5016195;28;20463;-74
2020/12/02 04:32:52;;;;;;;21.55;13.93;;;2.40;99.90;;;;;;5009540;28;20080;-74
2020/12/02 04:35:18;;;;;;;18.40;12.77;;;2.40;99.90;;;;;;5015361;28;20060;-73
2020/12/02 04:37:44;;;;;;;17.52;11.40;;;2.50;99.90;;;;;;5028631;28;20031;-74
2020/12/02 04:40:15;;;;;;;12.70;9.90;;;2.40;99.90;;;;;;5025139;28;20045;-74
2020/12/02 04:42:46;;;;;;;14.00;10.52;;;2.40;99.90;;;;;;5028114;28;20061;-74
2020/12/02 04:45:15;;;;;;;15.60;10.75;;;2.40;99.90;;;;;;5026606;28;20083;-76
2020/12/02 04:47:42;;;;;;;19.15;12.18;;;2.40;99.90;;;;;;5023256;28;20189;-75
2020/12/02 04:50:22;;;;;;;19.05;12.02;;;2.40;99.90;;;;;;5023412;28;20407;-76
2020/12/02 04:53:15;;;;;;;18.65;11.98;;;2.40;99.90;;;;;;5018732;28;20040;-76
2020/12/02 04:55:43;;;;;;;18.23;11.52;;;2.40;99.90;;;;;;5026979;28;20064;-76
2020/12/02 04:58:32;;;;;;;17.45;10.90;;;2.40;99.90;;;;;;5026099;28;20037;-76
2020/12/02 05:01:16;;;;;;;20.00;12.48;;;2.30;99.90;;;;;;5028099;28;20387;-76
2020/12/02 05:03:56;;;;;;;23.95;14.75;;;2.30;99.90;;;;;;5026185;28;20352;-76
2020/12/02 05:06:27;;;;;;;28.17;16.85;;;2.30;99.90;;;;;;5027224;28;20033;-76
2020/12/02 05:09:23;;;;;;;27.10;16.90;;;2.30;99.90;;;;;;5026427;28;20029;-76
2020/12/02 05:12:00;;;;;;;26.17;17.05;;;2.30;99.90;;;;;;5027481;28;20048;-76
2020/12/02 05:14:38;;;;;;;28.65;17.60;;;2.20;99.90;;;;;;5020213;28;20045;-76
2020/12/02 05:17:14;;;;;;;26.08;17.73;;;2.20;99.90;;;;;;5020806;28;20026;-76
2020/12/02 05:19:39;;;;;;;22.48;16.83;;;2.20;99.90;;;;;;5027101;28;20213;-76
2020/12/02 05:22:10;;;;;;;23.17;16.25;;;2.20;99.90;;;;;;5025773;28;20037;-72
2020/12/02 05:25:03;;;;;;;25.85;17.42;;;2.20;99.90;;;;;;5022338;28;20030;-77
2020/12/02 05:27:34;;;;;;;22.05;16.17;;;2.20;99.90;;;;;;5020891;28;20045;-76
2020/12/02 05:30:02;;;;;;;34.55;20.80;;;2.20;99.90;;;;;;5026351;28;20041;-76
2020/12/02 05:32:29;;;;;;;27.38;19.67;;;2.10;99.90;;;;;;5027083;28;20588;-76
2020/12/02 05:34:56;;;;;;;29.30;20.75;;;2.10;99.90;;;;;;5027228;28;20064;-76
2020/12/02 05:37:34;;;;;;;26.52;19.65;;;2.10;99.90;;;;;;5022134;28;20479;-76
2020/12/02 05:40:05;;;;;;;30.70;21.48;;;2.00;99.90;;;;;;5027919;28;20463;-76
2020/12/02 05:42:56;;;;;;;34.42;24.35;;;2.00;99.90;;;;;;5025746;28;20033;-76
2020/12/02 05:45:30;;;;;;;32.15;20.77;;;2.00;99.90;;;;;;5022972;28;20041;-74
2020/12/02 05:47:56;;;;;;;30.73;22.25;;;1.90;99.90;;;;;;5024514;28;20029;-76
2020/12/02 05:50:24;;;;;;;32.38;21.15;;;1.90;99.90;;;;;;5025084;28;20418;-74
2020/12/02 05:52:56;;;;;;;32.85;22.00;;;1.90;99.90;;;;;;5027598;28;20034;-74
2020/12/02 05:55:24;;;;;;;;;;;1.90;99.90;;;;;;5026384;28;20041;-73
2020/12/02 05:57:58;;;;;;;32.75;21.13;;;1.80;99.90;;;;;;5026650;28;19959;-74
2020/12/02 06:00:27;;;;;;;30.95;21.95;;;1.70;99.90;;;;;;5026522;28;20033;-76
2020/12/02 06:02:54;;;;;;;33.67;22.85;;;1.80;99.90;;;;;;5015397;28;20034;-77
2020/12/02 06:05:20;;;;;;;33.33;23.27;;;1.80;99.90;;;;;;5027481;28;20037;-76
2020/12/02 06:07:55;;;;;;;38.00;25.38;;;1.80;99.90;;;;;;5030585;28;20025;-77
2020/12/02 06:10:34;;;;;;;31.00;23.05;;;1.70;99.90;;;;;;5026142;28;20459;-76
2020/12/02 06:13:00;;;;;;;41.05;25.95;;;1.70;99.90;;;;;;5022982;28;20071;-76
2020/12/02 06:15:26;;;;;;;31.75;22.10;;;1.70;99.90;;;;;;5023939;28;20034;-76
2020/12/02 06:18:26;;;;;;;32.15;22.48;;;1.70;99.90;;;;;;5025382;28;20048;-74
2020/12/02 06:20:51;;;;;;;30.92;22.50;;;1.70;99.90;;;;;;5018099;28;20061;-74
2020/12/02 06:23:17;;;;;;;32.95;21.42;;;1.70;99.90;;;;;;5017141;28;20026;-76
2020/12/02 06:25:49;;;;;;;31.95;21.63;;;1.70;99.90;;;;;;5022436;28;20037;-76
2020/12/02 06:28:21;;;;;;;30.98;21.60;;;1.70;99.90;;;;;;5029683;28;20348;-73
2020/12/02 06:31:07;;;;;;;34.92;22.65;;;1.70;99.90;;;;;;5025658;28;20075;-76
2020/12/02 06:33:37;;;;;;;31.90;19.65;;;1.70;99.90;;;;;;5023706;28;20025;-76
2020/12/02 06:36:17;;;;;;;31.20;18.92;;;1.70;99.90;;;;;;5027335;28;20029;-76
2020/12/02 06:38:44;;;;;;;30.40;18.27;;;1.70;99.90;;;;;;5021130;28;20014;-76
2020/12/02 06:41:34;;;;;;;31.48;17.50;;;1.60;99.90;;;;;;5021776;28;20042;-76
2020/12/02 06:44:02;;;;;;;30.05;18.20;;;1.70;99.90;;;;;;5017028;28;20033;-76
2020/12/02 06:47:08;;;;;;;29.20;16.67;;;1.70;99.90;;;;;;5030495;28;20040;-76
2020/12/02 06:49:37;;;;;;;27.00;15.45;;;1.70;99.90;;;;;;5022736;28;20037;-76
2020/12/02 06:52:07;;;;;;;25.30;15.25;;;1.70;99.90;;;;;;5020058;28;20033;-76
2020/12/02 06:54:36;;;;;;;23.15;14.70;;;1.60;99.90;;;;;;5026048;28;20025;-76
2020/12/02 06:57:06;;;;;;;25.30;15.88;;;1.60;99.90;;;;;;5025344;28;20064;-73
2020/12/02 06:59:32;;;;;;;32.42;18.95;;;1.60;99.90;;;;;;5023426;28;20044;-76
2020/12/02 07:02:05;;;;;;;30.50;18.40;;;1.70;99.90;;;;;;5021368;28;20041;-76
2020/12/02 07:04:36;;;;;;;27.00;17.00;;;1.70;99.90;;;;;;5019531;28;20026;-76
2020/12/02 07:07:01;;;;;;;27.98;16.75;;;1.70;99.90;;;;;;5019915;28;20364;-76
2020/12/02 07:09:27;;;;;;;26.17;16.17;;;1.70;99.90;;;;;;5017741;28;20063;-76
2020/12/02 07:12:03;;;;;;;19.20;12.40;;;1.80;99.90;;;;;;5016710;28;20033;-76
2020/12/02 07:14:37;;;;;;;19.52;12.88;;;1.80;99.90;;;;;;5019232;28;20520;-76
2020/12/02 07:17:06;;;;;;;16.60;11.52;;;1.80;99.90;;;;;;5020946;28;20033;-76
2020/12/02 07:19:35;;;;;;;18.75;10.70;;;1.80;99.90;;;;;;5016109;28;20077;-76
2020/12/02 07:22:24;;;;;;;17.58;10.43;;;1.80;99.90;;;;;;5019966;28;20383;-76
2020/12/02 07:24:52;;;;;;;15.90;10.85;;;1.80;99.90;;;;;;5015070;28;20056;-76
2020/12/02 07:27:21;;;;;;;21.42;13.07;;;1.80;99.90;;;;;;5018234;28;20113;-75
2020/12/02 07:30:05;;;;;;;19.20;12.65;;;1.70;99.90;;;;;;5011603;28;20040;-76
2020/12/02 07:32:31;;;;;;;16.45;11.88;;;1.80;99.90;;;;;;5021705;28;20346;-76
2020/12/02 07:35:01;;;;;;;19.50;13.15;;;1.80;99.90;;;;;;5013630;28;20390;-73
2020/12/02 07:37:27;;;;;;;24.35;17.90;;;1.80;99.90;;;;;;5020218;28;20272;-73
2020/12/02 07:39:58;;;;;;;26.52;17.92;;;1.80;99.90;;;;;;5019665;28;20426;-74
2020/12/02 07:42:42;;;;;;;27.73;18.05;;;1.90;99.90;;;;;;5011447;28;20553;-76
2020/12/02 07:45:14;;;;;;;24.17;17.13;;;1.80;99.90;;;;;;5015689;28;20026;-76
2020/12/02 07:47:53;;;;;;;23.33;17.70;;;1.90;99.90;;;;;;5024883;28;20037;-76
2020/12/02 07:50:36;;;;;;;25.17;17.50;;;1.90;99.90;;;;;;5019787;28;20043;-76
2020/12/02 07:53:08;;;;;;;25.05;15.80;;;1.90;99.90;;;;;;5027849;28;20025;-76
2020/12/02 07:55:43;;;;;;;22.92;15.68;;;2.00;99.90;;;;;;5024708;28;20041;-76
2020/12/02 07:58:31;;;;;;;24.30;15.27;;;2.00;99.90;;;;;;5023650;28;20172;-76
2020/12/02 08:01:03;;;;;;;23.45;14.75;;;2.00;99.90;;;;;;5024106;28;20140;-75
2020/12/02 08:03:37;;;;;;;24.52;14.70;;;2.10;99.90;;;;;;5017995;28;20072;-76
2020/12/02 08:06:37;;;;;;;22.55;14.40;;;2.10;99.90;;;;;;5020975;28;20037;-76
2020/12/02 08:09:02;;;;;;;23.55;14.57;;;2.10;99.90;;;;;;5023274;28;20439;-76
2020/12/02 08:11:28;;;;;;;21.70;14.15;;;2.10;99.90;;;;;;5015156;28;20039;-76
2020/12/02 08:13:56;;;;;;;25.92;16.15;;;2.20;99.90;;;;;;5020087;28;20165;-76
2020/12/02 08:16:38;;;;;;;24.77;15.60;;;2.20;99.90;;;;;;5021726;28;20039;-76
2020/12/02 08:19:05;;;;;;;23.85;15.65;;;2.20;99.90;;;;;;5018661;28;20037;-76
2020/12/02 08:21:32;;;;;;;23.63;15.55;;;2.20;99.90;;;;;;5026885;28;20033;-74
2020/12/02 08:24:16;;;;;;;22.55;16.02;;;2.10;99.90;;;;;;5021495;28;20033;-74
2020/12/02 08:26:43;;;;;;;24.42;16.75;;;2.20;99.90;;;;;;5027855;28;20017;-76
2020/12/02 08:29:10;;;;;;;22.05;16.08;;;2.20;99.90;;;;;;5016355;28;20041;-76
2020/12/02 08:31:37;;;;;;;22.77;16.35;;;2.30;99.90;;;;;;5022298;28;20029;-76
2020/12/02 08:34:13;;;;;;;23.02;15.40;;;2.30;99.90;;;;;;5022415;28;20042;-76
2020/12/02 08:36:43;;;;;;;28.52;19.35;;;2.40;99.90;;;;;;5016905;28;20075;-75
2020/12/02 08:39:09;;;;;;;26.25;17.30;;;2.30;99.90;;;;;;5026433;28;20545;-76
2020/12/02 08:41:53;;;;;;;29.33;17.17;;;2.30;99.90;;;;;;5022814;28;20025;-76
2020/12/02 08:44:19;;;;;;;23.45;15.02;;;2.30;99.90;;;;;;5016835;28;20034;-76
2020/12/02 08:46:47;;;;;;;19.35;14.07;;;2.40;99.90;;;;;;5013497;28;20071;-76
2020/12/02 08:49:13;;;;;;;24.52;14.80;;;2.40;99.90;;;;;;5015603;28;20356;-76
2020/12/02 08:51:39;;;;;;;29.27;16.30;;;2.40;99.90;;;;;;5027748;28;20033;-76
2020/12/02 08:54:11;;;;;;;23.55;14.02;;;2.40;99.90;;;;;;5016138;28;20395;-76
2020/12/02 08:56:37;;;;;;;;;;;2.40;99.90;;;;;;5020104;28;20025;-76
2020/12/02 08:59:05;;;;;;;19.73;11.45;;;2.40;99.90;;;;;;5014149;28;20301;-76
2020/12/02 09:01:31;;;;;;;18.33;11.48;;;2.40;99.90;;;;;;5021739;28;20033;-77
2020/12/02 09:03:57;;;;;;;31.48;16.70;;;2.40;99.90;;;;;;5018162;28;20064;-76
2020/12/02 09:06:23;;;;;;;35.67;18.95;;;2.40;99.90;;;;;;5016139;28;20398;-76
2020/12/02 09:08:49;;;;;;;32.35;17.38;;;2.50;99.90;;;;;;5024438;28;20021;-76
2020/12/02 09:11:22;;;;;;;35.60;20.67;;;2.50;99.90;;;;;;5021438;28;20422;-76
2020/12/02 09:13:48;;;;;;;56.47;30.60;;;2.50;99.90;;;;;;5011356;28;20076;-74
2020/12/02 09:16:29;;;;;;;36.95;20.00;;;2.60;99.90;;;;;;5011744;28;20038;-74
2020/12/02 09:18:55;;;;;;;35.47;18.13;;;2.70;99.90;;;;;;5018545;28;20476;-75
2020/12/02 09:21:23;;;;;;;27.77;15.25;;;2.70;99.90;;;;;;5021085;28;20053;-76
2020/12/02 09:23:49;;;;;;;27.48;16.27;;;2.60;99.90;;;;;;5019941;28;20494;-76
2020/12/02 09:26:16;;;;;;;24.67;16.63;;;2.60;99.90;;;;;;5022736;28;20033;-77
2020/12/02 09:28:42;;;;;;;29.30;15.43;;;2.70;99.90;;;;;;5020523;28;20137;-76
2020/12/02 09:31:08;;;;;;;27.20;15.25;;;2.70;99.90;;;;;;5007745;28;20136;-77
2020/12/02 09:33:34;;;;;;;23.85;15.15;;;2.70;99.90;;;;;;5012538;28;20109;-76
2020/12/02 09:35:59;;;;;;;26.88;15.18;;;2.80;99.90;;;;;;5013490;28;20505;-76
2020/12/02 09:38:25;;;;;;;20.58;13.65;;;2.80;99.90;;;;;;5026374;28;20022;-75
2020/12/02 09:40:51;;;;;;;25.45;14.77;;;2.80;99.90;;;;;;5013403;28;20034;-76
2020/12/02 09:43:37;;;;;;;26.63;16.85;;;2.90;99.90;;;;;;5018806;28;20475;-77
2020/12/02 09:46:14;;;;;;;30.88;17.52;;;3.10;99.90;;;;;;5014030;28;20092;-76
2020/12/02 09:48:40;;;;;;;24.48;16.08;;;3.20;99.90;;;;;;5021647;28;20044;-76
2020/12/02 09:51:20;;;;;;;28.60;17.23;;;3.20;99.90;;;;;;5015963;28;20449;-75
2020/12/02 09:53:48;;;;;;;23.75;15.52;;;3.30;99.90;;;;;;5010376;28;20025;-76
2020/12/02 09:56:17;;;;;;;26.85;15.98;;;3.30;99.90;;;;;;5012200;28;20037;-76
2020/12/02 09:58:43;;;;;;;23.42;14.63;;;3.30;99.90;;;;;;5013270;28;20021;-77
2020/12/02 10:01:41;;;;;;;22.58;12.80;;;3.30;99.90;;;;;;5018313;28;20029;-76
2020/12/02 10:04:45;;;;;;;24.48;14.68;;;3.20;99.90;;;;;;5009222;28;20543;-76
2020/12/02 10:07:47;;;;;;;18.85;13.38;;;3.20;99.90;;;;;;5013861;28;20046;-76
2020/12/02 10:10:31;;;;;;;;;;;3.30;99.90;;;;;;5019448;28;20038;-77
2020/12/02 10:13:18;;;;;;;23.85;13.18;;;3.30;99.90;;;;;;5016046;28;19913;-76
2020/12/02 10:16:01;;;;;;;16.90;10.23;;;3.30;99.90;;;;;;5012764;28;20099;-77
2020/12/02 10:18:39;;;;;;;17.55;10.02;;;3.40;99.90;;;;;;5019340;28;20565;-76
2020/12/02 10:21:35;;;;;;;20.50;10.27;;;3.40;99.90;;;;;;5017855;28;20562;-76
2020/12/02 10:24:19;;;;;;;17.73;10.18;;;3.40;99.90;;;;;;5012505;28;20033;-75
2020/12/02 10:27:07;;;;;;;17.77;8.43;;;3.30;99.90;;;;;;5017572;28;20021;-76
2020/12/02 10:30:03;;;;;;;14.77;7.72;;;3.40;99.90;;;;;;5014474;28;20513;-76
2020/12/02 10:32:49;;;;;;;14.20;8.40;;;3.30;99.90;;;;;;5016279;28;20038;-76
2020/12/02 10:35:16;;;;;;;14.35;8.40;;;3.30;99.90;;;;;;5019082;28;20462;-76
2020/12/02 10:37:43;;;;;;;17.00;9.15;;;3.40;99.90;;;;;;5022942;28;20140;-75
2020/12/02 10:40:11;;;;;;;14.98;8.50;;;3.40;99.90;;;;;;5024588;28;20041;-76
2020/12/02 10:42:49;;;;;;;14.43;8.50;;;3.40;99.90;;;;;;5028306;28;20029;-76
2020/12/02 10:45:21;;;;;;;13.63;7.70;;;3.40;99.90;;;;;;5035966;28;20332;-76
2020/12/02 10:48:11;;;;;;;18.38;8.43;;;3.40;99.90;;;;;;5009891;28;20017;-76
2020/12/02 10:50:39;;;;;;;15.85;8.38;;;3.50;99.90;;;;;;5021262;28;20057;-75
2020/12/02 10:53:12;;;;;;;22.15;9.77;;;3.60;99.90;;;;;;5007507;28;20026;-76
2020/12/02 10:55:38;;;;;;;15.27;9.93;;;3.70;99.90;;;;;;5022487;28;20040;-77
2020/12/02 10:58:18;;;;;;;18.05;10.57;;;3.80;99.90;;;;;;5022870;28;20406;-77
2020/12/02 11:00:46;;;;;;;16.77;11.40;;;3.80;99.90;;;;;;5011326;28;20301;-76
2020/12/02 11:03:16;;;;;;;24.08;12.93;;;3.90;99.90;;;;;;5024826;28;20054;-76
2020/12/02 11:05:50;;;;;;;21.08;12.85;;;4.00;99.90;;;;;;5019517;28;20490;-76
2020/12/02 11:08:28;;;;;;;24.35;13.68;;;4.00;99.90;;;;;;5012013;28;20313;-76
2020/12/02 11:11:19;;;;;;;21.23;12.85;;;4.00;99.90;;;;;;5021210;28;20030;-76
2020/12/02 11:14:00;;;;;;;19.65;13.50;;;4.10;99.90;;;;;;5016555;28;20045;-77
2020/12/02 11:16:35;;;;;;;20.40;13.80;;;4.20;99.90;;;;;;5014008;28;20159;-77
2020/12/02 11:19:18;;;;;;;20.20;11.43;;;4.30;99.90;;;;;;5016999;28;20041;-76
2020/12/02 11:22:09;;;;;;;15.45;9.80;;;4.10;99.90;;;;;;5018293;28;20083;-75
2020/12/02 11:24:48;;;;;;;13.98;8.52;;;4.30;99.90;;;;;;5020659;28;20041;-76
2020/12/02 11:27:16;;;;;;;22.08;10.15;;;4.50;99.90;;;;;;5022246;28;20079;-76
2020/12/02 11:29:42;;;;;;;16.67;9.27;;;4.60;99.90;;;;;;5013482;28;20041;-76
2020/12/02 11:32:32;;;;;;;16.15;8.95;;;4.70;99.90;;;;;;5011894;28;20045;-76
2020/12/02 11:35:01;;;;;;;11.13;6.15;;;4.80;99.90;;;;;;5017784;28;20394;-76
2020/12/02 11:37:38;;;;;;;12.55;7.80;;;4.80;99.90;;;;;;5015178;28;20157;-76
2020/12/02 11:40:17;;;;;;;9.95;5.82;;;4.90;99.90;;;;;;5018761;28;20037;-76
2020/12/02 11:42:57;;;;;;;22.73;7.30;;;4.90;99.90;;;;;;5007577;28;20072;-77
2020/12/02 11:45:29;;;;;;;15.48;7.65;;;5.00;99.90;;;;;;5007197;28;20053;-76
2020/12/02 11:48:16;;;;;;;17.63;7.60;;;4.90;99.90;;;;;;5014134;28;20124;-76
2020/12/02 11:51:08;;;;;;;14.82;8.43;;;4.80;99.90;;;;;;5009659;28;20036;-76
2020/12/02 11:53:56;;;;;;;18.92;8.38;;;4.80;99.90;;;;;;5018974;28;20442;-76
2020/12/02 11:56:32;;;;;;;18.38;7.90;;;4.90;99.90;;;;;;5020833;28;20505;-76
2020/12/02 11:59:14;;;;;;;16.25;8.18;;;4.90;99.90;;;;;;5016615;28;20557;-76
2020/12/02 12:01:53;;;;;;;14.10;7.82;;;4.90;99.90;;;;;;5021150;28;20041;-76
2020/12/02 12:04:29;;;;;;;12.85;7.90;;;5.00;99.90;;;;;;5008819;28;20121;-76
2020/12/02 12:06:59;;;;;;;14.20;8.20;;;5.00;99.90;;;;;;5009422;28;20064;-76
2020/12/02 12:09:36;;;;;;;17.10;8.50;;;5.00;99.90;;;;;;5013112;28;20116;-76
2020/12/02 12:12:12;;;;;;;13.95;7.13;;;5.10;99.90;;;;;;5028985;28;20078;-76
2020/12/02 12:15:09;;;;;;;12.73;6.30;;;5.10;99.90;;;;;;5020089;28;20406;-76
2020/12/02 12:17:40;;;;;;;10.82;6.10;;;5.00;99.90;;;;;;5016715;28;20038;-76
2020/12/02 12:20:28;;;;;;;14.15;6.70;;;5.00;99.90;;;;;;5018390;28;20065;-76
2020/12/02 12:23:35;;;;;;;10.25;6.15;;;4.90;99.90;;;;;;5029253;28;20049;-76
2020/12/02 12:26:01;;;;;;;10.38;5.97;;;4.90;99.90;;;;;;5014964;28;20152;-76
2020/12/02 12:28:29;;;;;;;14.52;7.18;;;4.90;99.90;;;;;;5009679;28;20526;-76
2020/12/02 12:31:01;;;;;;;10.88;6.40;;;5.00;99.90;;;;;;5022142;28;20033;-76
2020/12/02 12:33:47;;;;;;;11.75;6.25;;;5.00;99.90;;;;;;5020502;28;20067;-76
2020/12/02 12:36:20;;;;;;;11.05;5.88;;;5.10;99.90;;;;;;5021537;28;20038;-76
2020/12/02 12:39:17;;;;;;;14.23;7.25;;;5.00;99.90;;;;;;5026205;28;20065;-76
2020/12/02 12:41:45;;;;;;;9.07;5.57;;;5.10;99.90;;;;;;5023804;28;20124;-76
2020/12/02 12:44:20;;;;;;;11.13;6.25;;;5.00;99.90;;;;;;5024437;28;20037;-76
2020/12/02 12:47:02;;;;;;;9.35;5.75;;;5.00;99.90;;;;;;5021120;28;20513;-76
2020/12/02 12:49:29;;;;;;;13.35;5.88;;;4.80;99.90;;;;;;5018009;28;20033;-76
2020/12/02 12:51:57;;;;;;;12.15;5.45;;;4.70;99.90;;;;;;5016773;28;20471;-76
2020/12/02 12:54:23;;;;;;;7.85;4.40;;;4.60;99.90;;;;;;5021558;28;20041;-76
2020/12/02 12:56:51;;;;;;;8.00;4.10;;;4.70;99.90;;;;;;5013636;28;20483;-76
2020/12/02 12:59:17;;;;;;;7.75;3.65;;;4.50;99.90;;;;;;5025166;28;20046;-76
2020/12/02 13:01:49;;;;;;;8.82;3.90;;;4.50;99.90;;;;;;5019412;28;20380;-76
2020/12/02 13:04:18;;;;;;;8.97;4.47;;;4.50;99.90;;;;;;5026143;28;20060;-74
2020/12/02 13:07:04;;;;;;;9.77;4.63;;;4.60;99.90;;;;;;5014691;28;20052;-76
2020/12/02 13:09:38;;;;;;;10.20;5.63;;;4.50;99.90;;;;;;5010066;28;20029;-76